If you wish to contribute or participate in the discussions about articles you are invited to join SKYbrary as a registered user

 Actions

Busselton Regional Airport

From SKYbrary Wiki

YBLN
Airport
ICAO: YBLN – IATA: BQB
Summary
Name Busselton Regional Airport
Region Asia and Pacific
Territory Australia AU.gif
Location Brusselton, Western Australia
Serving Brusselton
Elevation 16.764 m
55 ft
55 ft16.764 m
Type small airport
Coordinates 33° 41' 14.00" S, 115° 24' 1.00" E
Runways
Designator Length Width Surface ROPS
3/21 1800 m5,905.512 ft
30 m98.425 ft
ASP /


METAR
Observation YBLN 171400Z AUTO 19007KT //// // ////// 12/09 Q1022
Station Busselton Airport
Date/Time 17 October 2019 14:00:00
Wind direction 190°
Wind speed 07 kts
Lowest cloud amount n/a
Temperature 12°C
Dew point 9°C
Humidity 81%
QNH 1022 hPa
Weather condition n/a